createdAt,value
2023-11-19T00:02:34.541Z,5.10
2023-11-19T00:05:21.885Z,5.10
2023-11-19T00:08:09.956Z,5.20
2023-11-19T00:10:57.182Z,5.20
2023-11-19T00:13:44.402Z,5.20
2023-11-19T00:16:33.261Z,5.20
2023-11-19T00:19:20.564Z,5.20
2023-11-19T00:22:07.829Z,5.30
2023-11-19T00:24:55.347Z,5.30
2023-11-19T00:27:45.951Z,5.40
2023-11-19T00:30:33.701Z,5.40
2023-11-19T00:33:20.950Z,5.40
2023-11-19T00:36:08.763Z,5.40
2023-11-19T00:38:56.393Z,5.40
2023-11-19T00:41:43.808Z,5.50
2023-11-19T00:44:31.043Z,5.50
2023-11-19T00:47:21.563Z,5.40
2023-11-19T00:50:12.739Z,5.40
2023-11-19T00:53:00.066Z,5.30
2023-11-19T00:55:47.684Z,5.30
2023-11-19T00:58:35.209Z,5.30
2023-11-19T01:01:22.823Z,5.20
2023-11-19T01:04:10.128Z,5.20
2023-11-19T01:06:57.470Z,5.30
2023-11-19T01:09:44.725Z,5.20
2023-11-19T01:12:32.468Z,5.30
2023-11-19T01:15:20.351Z,5.30
2023-11-19T01:18:10.350Z,5.30
2023-11-19T01:20:57.868Z,5.30
2023-11-19T01:23:45.199Z,5.30
2023-11-19T01:26:32.487Z,5.30
2023-11-19T01:29:21.302Z,5.30
2023-11-19T01:32:08.623Z,5.40
2023-11-19T01:34:56.004Z,5.40
2023-11-19T01:37:43.269Z,5.40
2023-11-19T01:40:30.608Z,5.40
2023-11-19T01:43:37.606Z,5.50
2023-11-19T01:46:24.884Z,5.50
2023-11-19T01:49:13.682Z,5.50
2023-11-19T01:52:01.587Z,5.60
2023-11-19T01:54:48.926Z,5.60
2023-11-19T01:57:38.802Z,5.60
2023-11-19T02:00:26.755Z,5.60
2023-11-19T02:03:15.250Z,5.60
2023-11-19T02:06:02.826Z,5.60
2023-11-19T02:08:50.703Z,5.70
2023-11-19T02:11:41.198Z,5.70
2023-11-19T02:14:29.785Z,5.60
2023-11-19T02:17:32.440Z,5.70
2023-11-19T02:20:21.323Z,5.70
2023-11-19T02:23:08.644Z,5.70
2023-11-19T02:26:04.376Z,5.70
2023-11-19T02:28:51.702Z,5.70
2023-11-19T02:31:38.910Z,5.70
2023-11-19T02:34:26.555Z,5.70
2023-11-19T02:37:15.836Z,5.70
2023-11-19T02:40:04.506Z,5.60
2023-11-19T02:42:52.990Z,5.60
2023-11-19T02:45:40.497Z,5.60
2023-11-19T02:48:27.677Z,5.60
2023-11-19T02:51:14.944Z,5.60
2023-11-19T02:54:04.893Z,5.60
2023-11-19T02:56:56.575Z,5.60
2023-11-19T02:59:44.742Z,5.60
2023-11-19T03:02:35.451Z,5.60
2023-11-19T03:05:22.841Z,5.50
2023-11-19T03:08:10.073Z,5.50
2023-11-19T03:10:57.308Z,5.50
2023-11-19T03:13:44.491Z,5.50
2023-11-19T03:16:32.066Z,5.50
2023-11-19T03:22:09.416Z,5.50
2023-11-19T03:24:57.253Z,5.60
2023-11-19T03:27:44.519Z,5.60
2023-11-19T03:30:35.452Z,5.50
2023-11-19T03:33:23.075Z,5.50
2023-11-19T03:36:10.426Z,5.60
2023-11-19T03:38:57.666Z,5.60
2023-11-19T03:41:48.249Z,5.60
2023-11-19T03:44:35.527Z,5.60
2023-11-19T03:47:23.266Z,5.60
2023-11-19T03:50:10.620Z,5.60
2023-11-19T03:52:58.032Z,5.60
2023-11-19T03:55:45.376Z,5.70
2023-11-19T03:58:32.743Z,5.70
2023-11-19T04:01:20.068Z,5.60
2023-11-19T04:04:07.443Z,5.60
2023-11-19T04:06:55.230Z,5.50
2023-11-19T04:09:42.514Z,5.50
2023-11-19T04:12:29.825Z,5.40
2023-11-19T04:15:17.216Z,5.40
2023-11-19T04:18:04.567Z,5.40
2023-11-19T04:20:52.187Z,5.40
2023-11-19T04:23:39.410Z,5.30
2023-11-19T04:26:26.649Z,5.30
2023-11-19T04:29:15.909Z,5.40
2023-11-19T04:32:03.192Z,5.40
2023-11-19T04:34:50.533Z,5.40
2023-11-19T04:37:38.906Z,5.40
2023-11-19T04:40:26.364Z,5.40
2023-11-19T04:43:14.106Z,5.40
2023-11-19T04:46:01.460Z,5.40
2023-11-19T04:48:48.736Z,5.40
2023-11-19T04:51:39.885Z,5.40
2023-11-19T04:54:27.107Z,5.40
2023-11-19T04:57:14.428Z,5.40
2023-11-19T05:00:01.850Z,5.40
2023-11-19T05:02:49.160Z,5.40
2023-11-19T05:05:36.569Z,5.50
2023-11-19T05:08:23.901Z,5.40
2023-11-19T05:11:13.325Z,5.50
2023-11-19T05:14:00.782Z,5.50
2023-11-19T05:16:48.199Z,5.40
2023-11-19T05:19:35.671Z,5.40
2023-11-19T05:22:23.081Z,5.40
2023-11-19T05:25:11.922Z,5.40
2023-11-19T05:27:59.403Z,5.40
2023-11-19T05:30:47.168Z,5.30
2023-11-19T05:33:34.441Z,5.20
2023-11-19T05:36:21.712Z,5.10
2023-11-19T05:39:09.295Z,5.00
2023-11-19T05:41:56.671Z,5.10
2023-11-19T05:44:43.986Z,5.00
2023-11-19T05:47:31.478Z,5.00
2023-11-19T05:50:18.740Z,5.00
2023-11-19T05:53:11.468Z,5.00
2023-11-19T05:55:59.540Z,4.90
2023-11-19T05:58:47.083Z,4.90
2023-11-19T06:01:37.747Z,4.80
2023-11-19T06:04:25.153Z,4.80
2023-11-19T06:07:12.479Z,4.90
2023-11-19T06:09:59.831Z,4.80
2023-11-19T06:12:47.415Z,4.80
2023-11-19T06:15:34.902Z,4.80
2023-11-19T06:18:22.204Z,4.80
2023-11-19T06:21:09.573Z,4.70
2023-11-19T06:23:56.880Z,4.70
2023-11-19T06:26:44.324Z,4.70
2023-11-19T06:29:31.576Z,4.70
2023-11-19T06:32:18.824Z,4.60
2023-11-19T06:35:06.749Z,4.60
2023-11-19T06:37:54.002Z,4.50
2023-11-19T06:40:42.408Z,4.40
2023-11-19T06:43:41.850Z,4.50
2023-11-19T06:46:29.905Z,4.50
2023-11-19T06:49:17.977Z,4.50
2023-11-19T06:52:05.646Z,4.60
2023-11-19T06:54:52.906Z,4.60
2023-11-19T06:57:40.159Z,4.70
2023-11-19T07:00:27.910Z,4.70
2023-11-19T07:03:15.811Z,4.70
2023-11-19T07:06:04.918Z,4.80
2023-11-19T07:08:52.253Z,4.80
2023-11-19T07:11:40.783Z,4.80
2023-11-19T07:14:28.123Z,4.80
2023-11-19T07:17:16.793Z,4.90
2023-11-19T07:20:04.579Z,4.90
2023-11-19T07:22:53.352Z,4.90
2023-11-19T07:25:41.752Z,4.90
2023-11-19T07:28:29.926Z,4.90
2023-11-19T07:31:17.490Z,4.90
2023-11-19T07:34:06.397Z,4.80
2023-11-19T07:36:53.714Z,4.90
2023-11-19T07:39:42.576Z,4.90
2023-11-19T07:42:30.237Z,4.90
2023-11-19T07:45:18.545Z,5.00
2023-11-19T07:48:07.468Z,5.00
2023-11-19T07:50:54.852Z,5.00
2023-11-19T07:53:42.479Z,5.10
2023-11-19T07:56:29.753Z,5.10
2023-11-19T07:59:17.129Z,5.10
2023-11-19T08:02:06.768Z,5.10
2023-11-19T08:04:56.346Z,5.10
2023-11-19T08:07:44.193Z,5.20
2023-11-19T08:10:31.515Z,5.20
2023-11-19T08:13:21.902Z,5.30
2023-11-19T08:16:09.364Z,5.40
2023-11-19T08:18:58.353Z,5.40
2023-11-19T08:21:45.561Z,5.50
2023-11-19T08:24:32.943Z,5.50
2023-11-19T08:27:20.341Z,5.60
2023-11-19T08:30:08.310Z,5.70
2023-11-19T08:32:55.568Z,5.90
2023-11-19T08:35:42.964Z,6.10
2023-11-19T08:38:31.890Z,6.20
2023-11-19T08:41:27.696Z,6.30
2023-11-19T08:44:15.827Z,6.30
2023-11-19T08:47:03.066Z,6.40
2023-11-19T08:52:43.962Z,6.40
2023-11-19T08:55:31.251Z,6.40
2023-11-19T08:58:19.347Z,6.40
2023-11-19T09:01:06.679Z,6.40
2023-11-19T09:03:54.054Z,6.40
2023-11-19T09:06:41.599Z,6.40
2023-11-19T09:09:28.836Z,6.40
2023-11-19T09:12:16.069Z,6.40
2023-11-19T09:15:03.801Z,6.40
2023-11-19T09:17:51.129Z,6.50
2023-11-19T09:20:39.725Z,6.50
2023-11-19T09:23:29.033Z,6.60
2023-11-19T09:26:16.696Z,6.60
2023-11-19T09:29:03.922Z,6.70
2023-11-19T09:31:51.135Z,6.90
2023-11-19T09:34:38.336Z,7.00
2023-11-19T09:37:25.570Z,7.10
2023-11-19T09:40:12.863Z,7.10
2023-11-19T09:43:00.759Z,7.10
2023-11-19T09:45:53.042Z,7.20
2023-11-19T09:48:43.630Z,7.20
2023-11-19T09:51:30.910Z,7.20
2023-11-19T09:54:18.112Z,7.20
2023-11-19T09:57:05.772Z,7.30
2023-11-19T09:59:54.556Z,7.30
2023-11-19T10:02:43.051Z,7.30
2023-11-19T10:05:30.473Z,7.40
2023-11-19T10:08:18.705Z,7.40
2023-11-19T10:11:09.476Z,7.40
2023-11-19T10:13:57.635Z,7.30
2023-11-19T10:16:46.554Z,7.30
2023-11-19T10:19:33.791Z,7.30
2023-11-19T10:22:21.079Z,7.20
2023-11-19T10:25:28.313Z,7.20
2023-11-19T10:28:19.415Z,7.20
2023-11-19T10:31:07.040Z,7.20
2023-11-19T10:33:55.237Z,7.20
2023-11-19T10:36:43.343Z,7.20
2023-11-19T10:39:57.362Z,7.10
2023-11-19T10:42:44.646Z,7.00
2023-11-19T10:45:31.918Z,6.90
2023-11-19T10:48:19.587Z,6.90
2023-11-19T10:51:12.162Z,6.80
2023-11-19T10:54:06.964Z,6.80
2023-11-19T10:57:02.206Z,6.80
2023-11-19T10:59:51.289Z,6.80
2023-11-19T11:02:43.258Z,6.80
2023-11-19T11:05:34.755Z,6.90
2023-11-19T11:08:22.163Z,6.90
2023-11-19T11:11:13.060Z,7.00
2023-11-19T11:14:03.243Z,7.00
2023-11-19T11:16:50.983Z,7.10
2023-11-19T11:19:38.762Z,7.10
2023-11-19T11:25:32.906Z,7.10
2023-11-19T11:28:49.680Z,7.20
2023-11-19T11:32:14.876Z,7.20
2023-11-19T11:35:02.091Z,7.30
2023-11-19T11:37:54.359Z,7.30
2023-11-19T11:40:41.595Z,7.40
2023-11-19T11:43:48.777Z,7.50
2023-11-19T11:46:38.937Z,7.60
2023-11-19T11:49:27.560Z,7.60
2023-11-19T11:52:17.051Z,7.50
2023-11-19T11:55:10.342Z,7.50
2023-11-19T11:57:57.833Z,7.40
2023-11-19T12:00:47.097Z,7.40
2023-11-19T12:03:35.080Z,7.40
2023-11-19T12:06:23.372Z,7.30
2023-11-19T12:09:10.636Z,7.30
2023-11-19T12:12:20.035Z,7.30
2023-11-19T12:15:08.347Z,7.30
2023-11-19T12:17:56.315Z,7.30
2023-11-19T12:20:43.666Z,7.50
2023-11-19T12:23:31.704Z,7.50
2023-11-19T12:26:31.420Z,7.50
2023-11-19T12:29:19.370Z,7.50
2023-11-19T12:34:56.852Z,7.60
2023-11-19T12:37:45.764Z,7.50
2023-11-19T12:40:33.820Z,7.50
2023-11-19T12:43:24.221Z,7.40
2023-11-19T12:46:24.682Z,7.30
2023-11-19T12:49:12.767Z,7.40
2023-11-19T12:52:01.401Z,7.50
2023-11-19T12:54:48.772Z,7.50
2023-11-19T12:57:43.265Z,7.50
2023-11-19T13:00:30.965Z,7.50
2023-11-19T13:03:30.734Z,7.50
2023-11-19T13:06:18.316Z,7.50
2023-11-19T13:09:05.655Z,7.50
2023-11-19T13:11:53.697Z,7.40
2023-11-19T13:14:43.370Z,7.30
2023-11-19T13:17:30.835Z,7.20
2023-11-19T13:20:19.068Z,7.30
2023-11-19T13:23:08.185Z,7.30
2023-11-19T13:25:55.561Z,7.30
2023-11-19T13:28:42.900Z,7.30
2023-11-19T13:31:30.230Z,7.40
2023-11-19T13:34:17.574Z,7.40
2023-11-19T13:37:05.498Z,7.40
2023-11-19T13:39:52.828Z,7.40
2023-11-19T13:42:45.087Z,7.40
2023-11-19T13:45:33.461Z,7.30
2023-11-19T13:48:21.017Z,7.40
2023-11-19T13:51:08.373Z,7.40
2023-11-19T13:53:55.893Z,7.40
2023-11-19T13:56:45.931Z,7.40
2023-11-19T13:59:36.118Z,7.40
2023-11-19T14:02:23.438Z,7.30
2023-11-19T14:05:12.067Z,7.30
2023-11-19T14:07:59.480Z,7.20
2023-11-19T14:10:46.738Z,7.20
2023-11-19T14:13:37.017Z,7.10
2023-11-19T14:16:28.130Z,7.10
2023-11-19T14:19:15.914Z,7.10
2023-11-19T14:22:06.090Z,7.10
2023-11-19T14:24:53.351Z,7.00
2023-11-19T14:27:43.248Z,6.90
2023-11-19T14:30:30.649Z,6.80
2023-11-19T14:33:19.312Z,6.80
2023-11-19T14:36:08.477Z,6.70
2023-11-19T14:38:55.864Z,6.70
2023-11-19T14:41:45.114Z,6.60
2023-11-19T14:44:35.330Z,6.60
2023-11-19T14:47:24.363Z,6.60
2023-11-19T14:50:11.647Z,6.50
2023-11-19T14:52:59.642Z,6.50
2023-11-19T14:55:46.936Z,6.40
2023-11-19T14:58:34.312Z,6.40
2023-11-19T15:01:21.669Z,6.30
2023-11-19T15:04:09.085Z,6.20
2023-11-19T15:07:00.540Z,6.20
2023-11-19T15:09:47.795Z,6.10
2023-11-19T15:12:40.280Z,6.20
2023-11-19T15:18:18.651Z,6.20
2023-11-19T15:21:06.084Z,6.30
2023-11-19T15:23:53.426Z,6.30
2023-11-19T15:26:40.786Z,6.30
2023-11-19T15:29:28.191Z,6.30
2023-11-19T15:32:15.914Z,6.40
2023-11-19T15:35:04.191Z,6.30
2023-11-19T15:37:51.571Z,6.40
2023-11-19T15:40:38.888Z,6.30
2023-11-19T15:43:26.202Z,6.30
2023-11-19T15:46:13.528Z,6.40
2023-11-19T15:49:00.920Z,6.30
2023-11-19T15:51:48.196Z,6.30
2023-11-19T15:54:35.524Z,6.30
2023-11-19T15:57:23.061Z,6.30
2023-11-19T16:00:12.089Z,6.30
2023-11-19T16:03:02.275Z,6.20
2023-11-19T16:06:01.374Z,6.20
2023-11-19T16:08:56.493Z,6.20
2023-11-19T16:11:54.114Z,6.10
2023-11-19T16:14:44.018Z,6.10
2023-11-19T16:17:31.988Z,6.10
2023-11-19T16:20:19.358Z,6.00
2023-11-19T16:23:06.788Z,6.10
2023-11-19T16:25:54.784Z,6.10
2023-11-19T16:28:44.525Z,6.10
2023-11-19T16:31:32.471Z,6.10
2023-11-19T16:34:21.406Z,6.10
2023-11-19T16:37:10.953Z,6.10
2023-11-19T16:39:58.204Z,6.20
2023-11-19T16:42:50.085Z,6.10
2023-11-19T16:45:37.310Z,6.10
2023-11-19T16:48:25.701Z,6.10
2023-11-19T16:51:23.631Z,6.00
2023-11-19T16:54:11.801Z,6.00
2023-11-19T16:56:59.169Z,6.00
2023-11-19T16:59:46.833Z,6.00
2023-11-19T17:05:27.447Z,6.00
2023-11-19T17:08:15.092Z,6.00
2023-11-19T17:11:04.506Z,6.00
2023-11-19T17:13:52.053Z,6.00
2023-11-19T17:16:40.633Z,6.00
2023-11-19T17:19:28.111Z,6.00
2023-11-19T17:22:15.373Z,6.00
2023-11-19T17:25:05.137Z,5.90
2023-11-19T17:27:52.619Z,5.90
2023-11-19T17:30:41.101Z,5.90
2023-11-19T17:33:28.357Z,6.00
2023-11-19T17:36:15.850Z,6.00
2023-11-19T17:39:05.028Z,6.00
2023-11-19T17:41:52.225Z,6.10
2023-11-19T17:44:40.006Z,6.10
2023-11-19T17:47:27.474Z,6.10
2023-11-19T17:53:05.191Z,6.10
2023-11-19T17:55:53.114Z,6.10
2023-11-19T17:58:40.402Z,6.00
2023-11-19T18:01:31.736Z,5.90
2023-11-19T18:04:19.036Z,5.90
2023-11-19T18:07:06.350Z,5.80
2023-11-19T18:09:53.682Z,5.80
2023-11-19T18:12:41.304Z,5.80
2023-11-19T18:15:30.970Z,5.90
2023-11-19T18:18:18.374Z,5.80
2023-11-19T18:21:05.789Z,5.80
2023-11-19T18:23:53.084Z,5.80
2023-11-19T18:29:30.653Z,5.80
2023-11-19T18:32:18.002Z,5.80
2023-11-19T18:35:12.679Z,5.80
2023-11-19T18:37:59.923Z,5.80
2023-11-19T18:40:47.616Z,5.80
2023-11-19T18:43:35.253Z,5.80
2023-11-19T18:46:22.497Z,5.80
2023-11-19T18:49:10.389Z,5.80
2023-11-19T18:52:02.584Z,5.90
2023-11-19T18:54:49.861Z,5.90
2023-11-19T18:57:40.213Z,5.90
2023-11-19T19:00:27.424Z,5.90
2023-11-19T19:03:29.167Z,5.90
2023-11-19T19:06:23.969Z,5.90
2023-11-19T19:09:15.236Z,5.80
2023-11-19T19:12:13.215Z,5.80
2023-11-19T19:17:53.032Z,5.70
2023-11-19T19:20:40.456Z,5.70
2023-11-19T19:23:28.208Z,5.60
2023-11-19T19:26:15.825Z,5.60
2023-11-19T19:29:03.648Z,5.60
2023-11-19T19:35:28.703Z,5.60
2023-11-19T19:38:18.711Z,5.70
2023-11-19T19:41:06.232Z,5.70
2023-11-19T19:43:53.977Z,5.80
2023-11-19T19:46:41.177Z,5.80
2023-11-19T19:49:30.816Z,5.80
2023-11-19T19:52:18.244Z,5.80
2023-11-19T19:55:09.943Z,5.80
2023-11-19T19:57:57.261Z,5.80
2023-11-19T20:00:44.652Z,5.80
2023-11-19T20:03:32.381Z,5.90
2023-11-19T20:06:22.636Z,5.90
2023-11-19T20:09:14.950Z,6.00
2023-11-19T20:12:15.557Z,6.00
2023-11-19T20:15:10.324Z,6.10
2023-11-19T20:17:58.120Z,6.20
2023-11-19T20:20:49.084Z,6.10
2023-11-19T20:23:36.793Z,6.10
2023-11-19T20:26:38.049Z,6.10
2023-11-19T20:29:26.611Z,6.10
2023-11-19T20:32:15.640Z,6.10
2023-11-19T20:35:02.932Z,6.10
2023-11-19T20:38:00.491Z,6.00
2023-11-19T20:40:47.811Z,6.00
2023-11-19T20:43:39.094Z,5.90
2023-11-19T20:46:30.730Z,5.80
2023-11-19T20:49:22.330Z,5.80
2023-11-19T20:52:12.887Z,5.70
2023-11-19T20:55:07.477Z,5.70
2023-11-19T20:57:55.904Z,5.70
2023-11-19T21:00:45.009Z,5.70
2023-11-19T21:03:32.592Z,5.70
2023-11-19T21:06:21.110Z,5.80
2023-11-19T21:09:11.318Z,5.80
2023-11-19T21:11:59.834Z,5.80
2023-11-19T21:14:48.476Z,5.80
2023-11-19T21:17:35.950Z,5.70
2023-11-19T21:20:23.204Z,5.70
2023-11-19T21:23:11.109Z,5.80
2023-11-19T21:26:01.501Z,5.80
2023-11-19T21:28:51.919Z,5.80
2023-11-19T21:34:34.267Z,5.80
2023-11-19T21:37:23.819Z,5.80
2023-11-19T21:40:11.869Z,5.70
2023-11-19T21:43:00.968Z,5.70
2023-11-19T21:45:48.394Z,5.60
2023-11-19T21:48:35.624Z,5.60
2023-11-19T21:51:22.875Z,5.60
2023-11-19T21:54:10.241Z,5.70
2023-11-19T21:56:57.551Z,5.70
2023-11-19T21:59:45.085Z,5.80
2023-11-19T22:02:32.760Z,5.80
2023-11-19T22:05:22.764Z,5.90
2023-11-19T22:11:00.970Z,6.10
2023-11-19T22:13:48.222Z,6.10
2023-11-19T22:16:35.590Z,6.20
2023-11-19T22:19:22.859Z,6.20
2023-11-19T22:22:10.053Z,6.20
2023-11-19T22:24:57.372Z,6.20
2023-11-19T22:27:44.741Z,6.30
2023-11-19T22:30:32.057Z,6.30
2023-11-19T22:33:19.511Z,6.30
2023-11-19T22:36:07.279Z,6.30
2023-11-19T22:38:55.358Z,6.30
2023-11-19T22:41:42.932Z,6.40
2023-11-19T22:44:30.208Z,6.40
2023-11-19T22:47:17.755Z,6.40
2023-11-19T22:50:05.405Z,6.40
2023-11-19T22:52:53.789Z,6.40
2023-11-19T22:55:41.000Z,6.50
2023-11-19T23:01:16.280Z,6.60
2023-11-19T23:04:03.883Z,6.60
2023-11-19T23:06:51.253Z,6.70
2023-11-19T23:09:40.727Z,6.60
2023-11-19T23:12:28.095Z,6.60
2023-11-19T23:15:18.242Z,6.70
2023-11-19T23:18:06.435Z,6.70
2023-11-19T23:20:54.412Z,6.80
2023-11-19T23:23:41.715Z,6.80
2023-11-19T23:26:29.044Z,6.90
2023-11-19T23:29:16.760Z,6.90
2023-11-19T23:32:05.976Z,6.80
2023-11-19T23:34:53.161Z,6.80
2023-11-19T23:37:42.137Z,6.80
2023-11-19T23:40:29.496Z,6.70
2023-11-19T23:43:16.730Z,6.70
2023-11-19T23:46:04.666Z,6.60
2023-11-19T23:51:44.330Z,6.60
2023-11-19T23:54:32.320Z,6.60
2023-11-19T23:57:19.591Z,6.50
